sensor_id;sensor_type;location;lat;lon;timestamp;P1;durP1;ratioP1;P2;durP2;ratioP2
49175;SDS011;35012;47.200;9.748;2023-05-07T00:00:18;2.50;;;1.83;;
49175;SDS011;35012;47.200;9.748;2023-05-07T00:02:44;2.23;;;1.43;;
49175;SDS011;35012;47.200;9.748;2023-05-07T00:05:11;4.33;;;1.60;;
49175;SDS011;35012;47.200;9.748;2023-05-07T00:07:36;3.17;;;1.60;;
49175;SDS011;35012;47.200;9.748;2023-05-07T00:10:02;1.90;;;1.70;;
49175;SDS011;35012;47.200;9.748;2023-05-07T00:12:28;2.13;;;1.60;;
49175;SDS011;35012;47.200;9.748;2023-05-07T00:14:56;2.20;;;1.80;;
49175;SDS011;35012;47.200;9.748;2023-05-07T00:17:22;4.20;;;1.70;;
49175;SDS011;35012;47.200;9.748;2023-05-07T00:19:48;2.87;;;1.70;;
49175;SDS011;35012;47.200;9.748;2023-05-07T00:22:13;1.60;;;1.30;;
49175;SDS011;35012;47.200;9.748;2023-05-07T00:24:39;2.10;;;1.40;;
49175;SDS011;35012;47.200;9.748;2023-05-07T00:27:05;3.53;;;1.70;;
49175;SDS011;35012;47.200;9.748;2023-05-07T00:29:30;2.87;;;1.80;;
49175;SDS011;35012;47.200;9.748;2023-05-07T00:31:56;2.60;;;1.33;;
49175;SDS011;35012;47.200;9.748;2023-05-07T00:34:21;3.33;;;1.67;;
49175;SDS011;35012;47.200;9.748;2023-05-07T00:36:47;2.20;;;1.50;;
49175;SDS011;35012;47.200;9.748;2023-05-07T00:39:13;2.23;;;1.60;;
49175;SDS011;35012;47.200;9.748;2023-05-07T00:41:38;2.20;;;1.43;;
49175;SDS011;35012;47.200;9.748;2023-05-07T00:44:03;3.03;;;1.80;;
49175;SDS011;35012;47.200;9.748;2023-05-07T00:46:29;3.23;;;1.80;;
49175;SDS011;35012;47.200;9.748;2023-05-07T00:48:56;1.73;;;1.30;;
49175;SDS011;35012;47.200;9.748;2023-05-07T00:51:22;2.93;;;1.50;;
49175;SDS011;35012;47.200;9.748;2023-05-07T00:53:48;2.03;;;1.40;;
49175;SDS011;35012;47.200;9.748;2023-05-07T00:56:14;1.43;;;1.20;;
49175;SDS011;35012;47.200;9.748;2023-05-07T00:58:40;1.70;;;1.40;;
49175;SDS011;35012;47.200;9.748;2023-05-07T01:01:06;1.90;;;1.40;;
49175;SDS011;35012;47.200;9.748;2023-05-07T01:03:32;5.00;;;1.60;;
49175;SDS011;35012;47.200;9.748;2023-05-07T01:05:58;1.83;;;1.50;;
49175;SDS011;35012;47.200;9.748;2023-05-07T01:08:24;2.47;;;1.23;;
49175;SDS011;35012;47.200;9.748;2023-05-07T01:10:51;2.80;;;1.27;;
49175;SDS011;35012;47.200;9.748;2023-05-07T01:13:18;4.03;;;1.60;;
49175;SDS011;35012;47.200;9.748;2023-05-07T01:15:44;2.27;;;1.70;;
49175;SDS011;35012;47.200;9.748;2023-05-07T01:18:10;4.43;;;1.53;;
49175;SDS011;35012;47.200;9.748;2023-05-07T01:20:36;2.13;;;1.43;;
49175;SDS011;35012;47.200;9.748;2023-05-07T01:23:01;1.40;;;1.30;;
49175;SDS011;35012;47.200;9.748;2023-05-07T01:25:28;2.33;;;1.60;;
49175;SDS011;35012;47.200;9.748;2023-05-07T01:27:53;2.00;;;1.37;;
49175;SDS011;35012;47.200;9.748;2023-05-07T01:30:20;3.57;;;1.40;;
49175;SDS011;35012;47.200;9.748;2023-05-07T01:32:56;2.27;;;1.60;;
49175;SDS011;35012;47.200;9.748;2023-05-07T01:35:29;3.00;;;1.40;;
49175;SDS011;35012;47.200;9.748;2023-05-07T01:37:57;1.77;;;1.47;;
49175;SDS011;35012;47.200;9.748;2023-05-07T01:40:24;3.57;;;1.63;;
49175;SDS011;35012;47.200;9.748;2023-05-07T01:42:50;3.17;;;1.40;;
49175;SDS011;35012;47.200;9.748;2023-05-07T01:45:16;6.23;;;1.50;;
49175;SDS011;35012;47.200;9.748;2023-05-07T01:47:41;1.87;;;1.37;;
49175;SDS011;35012;47.200;9.748;2023-05-07T01:50:07;2.50;;;1.40;;
49175;SDS011;35012;47.200;9.748;2023-05-07T01:52:33;3.77;;;1.50;;
49175;SDS011;35012;47.200;9.748;2023-05-07T01:54:59;3.63;;;1.40;;
49175;SDS011;35012;47.200;9.748;2023-05-07T01:57:25;1.93;;;1.33;;
49175;SDS011;35012;47.200;9.748;2023-05-07T01:59:50;2.97;;;1.50;;
49175;SDS011;35012;47.200;9.748;2023-05-07T02:02:16;2.33;;;1.33;;
49175;SDS011;35012;47.200;9.748;2023-05-07T02:04:41;2.37;;;1.23;;
49175;SDS011;35012;47.200;9.748;2023-05-07T02:07:07;2.60;;;1.40;;
49175;SDS011;35012;47.200;9.748;2023-05-07T02:09:32;2.23;;;1.40;;
49175;SDS011;35012;47.200;9.748;2023-05-07T02:11:58;4.03;;;1.33;;
49175;SDS011;35012;47.200;9.748;2023-05-07T02:14:23;5.43;;;1.60;;
49175;SDS011;35012;47.200;9.748;2023-05-07T02:16:49;7.13;;;1.40;;
49175;SDS011;35012;47.200;9.748;2023-05-07T02:19:14;2.03;;;1.00;;
49175;SDS011;35012;47.200;9.748;2023-05-07T02:21:40;3.43;;;1.37;;
49175;SDS011;35012;47.200;9.748;2023-05-07T02:24:06;2.47;;;1.27;;
49175;SDS011;35012;47.200;9.748;2023-05-07T02:26:32;3.93;;;1.20;;
49175;SDS011;35012;47.200;9.748;2023-05-07T02:28:57;1.30;;;1.20;;
49175;SDS011;35012;47.200;9.748;2023-05-07T02:31:23;1.57;;;1.20;;
49175;SDS011;35012;47.200;9.748;2023-05-07T02:33:48;2.27;;;1.50;;
49175;SDS011;35012;47.200;9.748;2023-05-07T02:36:14;2.63;;;1.50;;
49175;SDS011;35012;47.200;9.748;2023-05-07T02:38:39;4.30;;;1.10;;
49175;SDS011;35012;47.200;9.748;2023-05-07T02:41:05;2.43;;;1.40;;
49175;SDS011;35012;47.200;9.748;2023-05-07T02:43:30;2.47;;;1.30;;
49175;SDS011;35012;47.200;9.748;2023-05-07T02:46:03;2.37;;;1.20;;
49175;SDS011;35012;47.200;9.748;2023-05-07T02:48:29;2.10;;;1.10;;
49175;SDS011;35012;47.200;9.748;2023-05-07T02:50:54;3.43;;;1.03;;
49175;SDS011;35012;47.200;9.748;2023-05-07T02:53:20;1.87;;;1.10;;
49175;SDS011;35012;47.200;9.748;2023-05-07T02:55:46;2.10;;;1.40;;
49175;SDS011;35012;47.200;9.748;2023-05-07T02:58:11;3.17;;;1.27;;
49175;SDS011;35012;47.200;9.748;2023-05-07T03:00:37;2.10;;;1.30;;
49175;SDS011;35012;47.200;9.748;2023-05-07T03:03:02;3.83;;;1.40;;
49175;SDS011;35012;47.200;9.748;2023-05-07T03:05:28;1.83;;;1.30;;
49175;SDS011;35012;47.200;9.748;2023-05-07T03:07:53;1.37;;;1.10;;
49175;SDS011;35012;47.200;9.748;2023-05-07T03:10:19;1.67;;;1.40;;
49175;SDS011;35012;47.200;9.748;2023-05-07T03:12:44;2.50;;;1.30;;
49175;SDS011;35012;47.200;9.748;2023-05-07T03:15:10;1.90;;;1.50;;
49175;SDS011;35012;47.200;9.748;2023-05-07T03:17:37;1.77;;;1.20;;
49175;SDS011;35012;47.200;9.748;2023-05-07T03:20:03;1.87;;;1.17;;
49175;SDS011;35012;47.200;9.748;2023-05-07T03:22:29;3.27;;;1.30;;
49175;SDS011;35012;47.200;9.748;2023-05-07T03:24:55;1.17;;;1.07;;
49175;SDS011;35012;47.200;9.748;2023-05-07T03:27:20;3.90;;;1.37;;
49175;SDS011;35012;47.200;9.748;2023-05-07T03:29:46;4.47;;;1.23;;
49175;SDS011;35012;47.200;9.748;2023-05-07T03:32:11;3.07;;;1.17;;
49175;SDS011;35012;47.200;9.748;2023-05-07T03:34:37;1.97;;;1.50;;
49175;SDS011;35012;47.200;9.748;2023-05-07T03:37:02;2.87;;;1.40;;
49175;SDS011;35012;47.200;9.748;2023-05-07T03:39:28;3.00;;;1.60;;
49175;SDS011;35012;47.200;9.748;2023-05-07T03:41:53;1.23;;;1.13;;
49175;SDS011;35012;47.200;9.748;2023-05-07T03:44:19;3.20;;;1.10;;
49175;SDS011;35012;47.200;9.748;2023-05-07T03:46:45;2.57;;;1.43;;
49175;SDS011;35012;47.200;9.748;2023-05-07T03:49:10;1.60;;;1.17;;
49175;SDS011;35012;47.200;9.748;2023-05-07T03:51:36;2.53;;;1.50;;
49175;SDS011;35012;47.200;9.748;2023-05-07T03:54:01;3.03;;;1.40;;
49175;SDS011;35012;47.200;9.748;2023-05-07T03:56:27;2.53;;;1.43;;
49175;SDS011;35012;47.200;9.748;2023-05-07T03:58:53;3.00;;;1.33;;
49175;SDS011;35012;47.200;9.748;2023-05-07T04:01:19;1.40;;;1.23;;
49175;SDS011;35012;47.200;9.748;2023-05-07T04:03:44;2.17;;;1.57;;
49175;SDS011;35012;47.200;9.748;2023-05-07T04:06:10;1.43;;;1.30;;
49175;SDS011;35012;47.200;9.748;2023-05-07T04:08:36;3.73;;;1.33;;
49175;SDS011;35012;47.200;9.748;2023-05-07T04:11:01;3.10;;;1.30;;
49175;SDS011;35012;47.200;9.748;2023-05-07T04:13:27;2.43;;;1.20;;
49175;SDS011;35012;47.200;9.748;2023-05-07T04:15:55;2.07;;;1.47;;
49175;SDS011;35012;47.200;9.748;2023-05-07T04:18:21;1.60;;;1.40;;
49175;SDS011;35012;47.200;9.748;2023-05-07T04:20:47;1.40;;;1.30;;
49175;SDS011;35012;47.200;9.748;2023-05-07T04:23:14;1.83;;;1.47;;
49175;SDS011;35012;47.200;9.748;2023-05-07T04:25:39;4.87;;;1.50;;
49175;SDS011;35012;47.200;9.748;2023-05-07T04:28:05;1.83;;;1.30;;
49175;SDS011;35012;47.200;9.748;2023-05-07T04:30:31;2.10;;;1.37;;
49175;SDS011;35012;47.200;9.748;2023-05-07T04:32:56;3.13;;;1.57;;
49175;SDS011;35012;47.200;9.748;2023-05-07T04:35:22;2.33;;;1.37;;
49175;SDS011;35012;47.200;9.748;2023-05-07T04:37:47;3.53;;;1.13;;
49175;SDS011;35012;47.200;9.748;2023-05-07T04:40:13;1.73;;;1.30;;
49175;SDS011;35012;47.200;9.748;2023-05-07T04:42:38;2.60;;;1.30;;
49175;SDS011;35012;47.200;9.748;2023-05-07T04:45:04;1.80;;;1.20;;
49175;SDS011;35012;47.200;9.748;2023-05-07T04:47:30;2.50;;;1.27;;
49175;SDS011;35012;47.200;9.748;2023-05-07T04:49:56;3.73;;;1.23;;
49175;SDS011;35012;47.200;9.748;2023-05-07T04:53:48;1.30;;;1.20;;
49175;SDS011;35012;47.200;9.748;2023-05-07T04:56:13;2.47;;;1.20;;
49175;SDS011;35012;47.200;9.748;2023-05-07T04:58:39;2.70;;;1.33;;
49175;SDS011;35012;47.200;9.748;2023-05-07T05:01:04;2.13;;;1.63;;
49175;SDS011;35012;47.200;9.748;2023-05-07T05:03:31;2.63;;;1.40;;
49175;SDS011;35012;47.200;9.748;2023-05-07T05:05:56;3.53;;;2.40;;
49175;SDS011;35012;47.200;9.748;2023-05-07T05:08:24;4.73;;;2.40;;
49175;SDS011;35012;47.200;9.748;2023-05-07T05:10:49;4.23;;;2.97;;
49175;SDS011;35012;47.200;9.748;2023-05-07T05:13:15;5.13;;;2.83;;
49175;SDS011;35012;47.200;9.748;2023-05-07T05:15:41;4.77;;;4.37;;
49175;SDS011;35012;47.200;9.748;2023-05-07T05:18:06;4.90;;;4.40;;
49175;SDS011;35012;47.200;9.748;2023-05-07T05:20:32;4.63;;;3.53;;
49175;SDS011;35012;47.200;9.748;2023-05-07T05:22:57;3.17;;;2.87;;
49175;SDS011;35012;47.200;9.748;2023-05-07T05:25:23;3.57;;;2.97;;
49175;SDS011;35012;47.200;9.748;2023-05-07T05:27:48;2.88;;;2.58;;
49175;SDS011;35012;47.200;9.748;2023-05-07T05:30:14;4.47;;;2.30;;
49175;SDS011;35012;47.200;9.748;2023-05-07T05:32:39;5.07;;;2.10;;
49175;SDS011;35012;47.200;9.748;2023-05-07T05:35:05;2.97;;;2.10;;
49175;SDS011;35012;47.200;9.748;2023-05-07T05:37:31;2.20;;;2.00;;
49175;SDS011;35012;47.200;9.748;2023-05-07T05:39:56;3.70;;;2.30;;
49175;SDS011;35012;47.200;9.748;2023-05-07T05:42:22;5.00;;;2.17;;
49175;SDS011;35012;47.200;9.748;2023-05-07T05:44:48;2.20;;;2.00;;
49175;SDS011;35012;47.200;9.748;2023-05-07T05:47:13;3.50;;;1.70;;
49175;SDS011;35012;47.200;9.748;2023-05-07T05:49:39;2.93;;;1.93;;
49175;SDS011;35012;47.200;9.748;2023-05-07T05:52:04;2.30;;;1.63;;
49175;SDS011;35012;47.200;9.748;2023-05-07T05:54:30;3.50;;;2.10;;
49175;SDS011;35012;47.200;9.748;2023-05-07T05:56:55;3.10;;;2.10;;
49175;SDS011;35012;47.200;9.748;2023-05-07T05:59:21;2.67;;;2.30;;
49175;SDS011;35012;47.200;9.748;2023-05-07T06:01:47;2.63;;;1.87;;
49175;SDS011;35012;47.200;9.748;2023-05-07T06:04:12;2.70;;;1.60;;
49175;SDS011;35012;47.200;9.748;2023-05-07T06:06:38;2.90;;;2.23;;
49175;SDS011;35012;47.200;9.748;2023-05-07T06:09:03;3.87;;;2.20;;
49175;SDS011;35012;47.200;9.748;2023-05-07T06:11:29;5.37;;;2.50;;
49175;SDS011;35012;47.200;9.748;2023-05-07T06:13:55;3.60;;;2.30;;
49175;SDS011;35012;47.200;9.748;2023-05-07T06:16:20;2.60;;;1.60;;
49175;SDS011;35012;47.200;9.748;2023-05-07T06:18:46;3.17;;;1.73;;
49175;SDS011;35012;47.200;9.748;2023-05-07T06:21:13;1.97;;;1.70;;
49175;SDS011;35012;47.200;9.748;2023-05-07T06:23:39;3.03;;;1.50;;
49175;SDS011;35012;47.200;9.748;2023-05-07T06:26:06;3.20;;;1.10;;
49175;SDS011;35012;47.200;9.748;2023-05-07T06:28:32;2.37;;;1.40;;
49175;SDS011;35012;47.200;9.748;2023-05-07T06:31:13;3.30;;;1.20;;
49175;SDS011;35012;47.200;9.748;2023-05-07T06:33:43;4.17;;;1.30;;
49175;SDS011;35012;47.200;9.748;2023-05-07T06:36:09;3.17;;;1.37;;
49175;SDS011;35012;47.200;9.748;2023-05-07T06:38:35;2.47;;;1.30;;
49175;SDS011;35012;47.200;9.748;2023-05-07T06:41:01;3.73;;;1.20;;
49175;SDS011;35012;47.200;9.748;2023-05-07T06:43:26;1.97;;;1.27;;
49175;SDS011;35012;47.200;9.748;2023-05-07T06:45:51;2.60;;;1.20;;
49175;SDS011;35012;47.200;9.748;2023-05-07T06:48:17;2.87;;;0.80;;
49175;SDS011;35012;47.200;9.748;2023-05-07T06:50:42;2.50;;;1.20;;
49175;SDS011;35012;47.200;9.748;2023-05-07T06:53:08;2.50;;;0.90;;
49175;SDS011;35012;47.200;9.748;2023-05-07T06:55:33;3.17;;;1.07;;
49175;SDS011;35012;47.200;9.748;2023-05-07T06:57:59;1.87;;;1.00;;
49175;SDS011;35012;47.200;9.748;2023-05-07T07:00:29;4.63;;;1.30;;
49175;SDS011;35012;47.200;9.748;2023-05-07T07:02:54;2.00;;;1.00;;
49175;SDS011;35012;47.200;9.748;2023-05-07T07:05:20;1.93;;;1.20;;
49175;SDS011;35012;47.200;9.748;2023-05-07T07:07:46;2.50;;;0.90;;
49175;SDS011;35012;47.200;9.748;2023-05-07T07:10:18;2.03;;;1.10;;
49175;SDS011;35012;47.200;9.748;2023-05-07T07:12:44;1.77;;;0.97;;
49175;SDS011;35012;47.200;9.748;2023-05-07T07:15:10;1.43;;;1.00;;
49175;SDS011;35012;47.200;9.748;2023-05-07T07:17:36;2.40;;;1.20;;
49175;SDS011;35012;47.200;9.748;2023-05-07T07:20:01;3.00;;;1.17;;
49175;SDS011;35012;47.200;9.748;2023-05-07T07:22:27;2.27;;;1.10;;
49175;SDS011;35012;47.200;9.748;2023-05-07T07:24:53;1.73;;;1.10;;
49175;SDS011;35012;47.200;9.748;2023-05-07T07:27:19;1.73;;;1.10;;
49175;SDS011;35012;47.200;9.748;2023-05-07T07:29:44;2.40;;;0.93;;
49175;SDS011;35012;47.200;9.748;2023-05-07T07:32:10;1.60;;;1.10;;
49175;SDS011;35012;47.200;9.748;2023-05-07T07:34:35;2.83;;;1.00;;
49175;SDS011;35012;47.200;9.748;2023-05-07T07:37:01;2.57;;;1.30;;
49175;SDS011;35012;47.200;9.748;2023-05-07T07:39:30;3.13;;;1.10;;
49175;SDS011;35012;47.200;9.748;2023-05-07T07:41:56;1.30;;;1.07;;
49175;SDS011;35012;47.200;9.748;2023-05-07T07:44:21;4.20;;;1.30;;
49175;SDS011;35012;47.200;9.748;2023-05-07T07:46:47;1.90;;;0.97;;
49175;SDS011;35012;47.200;9.748;2023-05-07T07:49:12;4.33;;;1.10;;
49175;SDS011;35012;47.200;9.748;2023-05-07T07:51:38;2.17;;;1.10;;
49175;SDS011;35012;47.200;9.748;2023-05-07T07:54:03;3.60;;;1.00;;
49175;SDS011;35012;47.200;9.748;2023-05-07T07:56:29;1.50;;;1.13;;
49175;SDS011;35012;47.200;9.748;2023-05-07T07:58:56;2.50;;;1.20;;
49175;SDS011;35012;47.200;9.748;2023-05-07T08:01:22;1.50;;;1.10;;
49175;SDS011;35012;47.200;9.748;2023-05-07T08:03:47;1.33;;;1.00;;
49175;SDS011;35012;47.200;9.748;2023-05-07T08:06:13;2.00;;;1.20;;
49175;SDS011;35012;47.200;9.748;2023-05-07T08:08:38;3.07;;;1.30;;
49175;SDS011;35012;47.200;9.748;2023-05-07T08:11:04;2.57;;;1.20;;
49175;SDS011;35012;47.200;9.748;2023-05-07T08:13:29;1.17;;;0.97;;
49175;SDS011;35012;47.200;9.748;2023-05-07T08:15:55;2.60;;;1.30;;
49175;SDS011;35012;47.200;9.748;2023-05-07T08:18:20;6.40;;;1.80;;
49175;SDS011;35012;47.200;9.748;2023-05-07T08:20:46;1.93;;;1.40;;
49175;SDS011;35012;47.200;9.748;2023-05-07T08:23:12;1.97;;;1.47;;
49175;SDS011;35012;47.200;9.748;2023-05-07T08:25:37;2.20;;;1.47;;
49175;SDS011;35012;47.200;9.748;2023-05-07T08:28:03;3.30;;;1.47;;
49175;SDS011;35012;47.200;9.748;2023-05-07T08:30:28;2.60;;;1.47;;
49175;SDS011;35012;47.200;9.748;2023-05-07T08:32:54;7.23;;;2.23;;
49175;SDS011;35012;47.200;9.748;2023-05-07T08:35:19;5.70;;;1.70;;
49175;SDS011;35012;47.200;9.748;2023-05-07T08:37:45;4.30;;;1.93;;
49175;SDS011;35012;47.200;9.748;2023-05-07T08:40:10;4.70;;;2.10;;
49175;SDS011;35012;47.200;9.748;2023-05-07T08:42:36;3.57;;;1.90;;
49175;SDS011;35012;47.200;9.748;2023-05-07T08:45:03;1.80;;;1.33;;
49175;SDS011;35012;47.200;9.748;2023-05-07T08:47:34;2.90;;;1.80;;
49175;SDS011;35012;47.200;9.748;2023-05-07T08:50:02;2.30;;;1.10;;
49175;SDS011;35012;47.200;9.748;2023-05-07T08:52:28;2.23;;;1.70;;
49175;SDS011;35012;47.200;9.748;2023-05-07T08:54:53;2.07;;;1.37;;
49175;SDS011;35012;47.200;9.748;2023-05-07T08:57:19;5.43;;;1.30;;
49175;SDS011;35012;47.200;9.748;2023-05-07T08:59:46;3.03;;;1.53;;
49175;SDS011;35012;47.200;9.748;2023-05-07T09:02:12;3.27;;;1.53;;
49175;SDS011;35012;47.200;9.748;2023-05-07T09:04:37;3.30;;;1.70;;
49175;SDS011;35012;47.200;9.748;2023-05-07T09:07:03;2.47;;;1.57;;
49175;SDS011;35012;47.200;9.748;2023-05-07T09:09:31;1.97;;;1.60;;
49175;SDS011;35012;47.200;9.748;2023-05-07T09:11:57;3.70;;;1.43;;
49175;SDS011;35012;47.200;9.748;2023-05-07T09:14:27;3.53;;;1.50;;
49175;SDS011;35012;47.200;9.748;2023-05-07T09:16:53;2.60;;;1.60;;
49175;SDS011;35012;47.200;9.748;2023-05-07T09:19:22;1.97;;;1.60;;
49175;SDS011;35012;47.200;9.748;2023-05-07T09:21:48;5.60;;;1.83;;
49175;SDS011;35012;47.200;9.748;2023-05-07T09:24:15;2.77;;;1.70;;
49175;SDS011;35012;47.200;9.748;2023-05-07T09:26:41;2.03;;;1.30;;
49175;SDS011;35012;47.200;9.748;2023-05-07T09:29:07;1.70;;;1.60;;
49175;SDS011;35012;47.200;9.748;2023-05-07T09:31:36;6.80;;;1.50;;
49175;SDS011;35012;47.200;9.748;2023-05-07T09:34:04;1.97;;;1.30;;
49175;SDS011;35012;47.200;9.748;2023-05-07T09:36:31;4.20;;;2.40;;
49175;SDS011;35012;47.200;9.748;2023-05-07T09:38:59;5.37;;;2.20;;
49175;SDS011;35012;47.200;9.748;2023-05-07T09:41:25;3.83;;;2.10;;
49175;SDS011;35012;47.200;9.748;2023-05-07T09:43:54;2.20;;;1.70;;
49175;SDS011;35012;47.200;9.748;2023-05-07T09:46:20;2.13;;;1.60;;
49175;SDS011;35012;47.200;9.748;2023-05-07T09:48:50;1.70;;;1.40;;
49175;SDS011;35012;47.200;9.748;2023-05-07T09:51:21;2.07;;;1.60;;
49175;SDS011;35012;47.200;9.748;2023-05-07T09:53:52;2.13;;;1.93;;
49175;SDS011;35012;47.200;9.748;2023-05-07T09:56:18;3.23;;;2.23;;
49175;SDS011;35012;47.200;9.748;2023-05-07T09:58:45;2.67;;;2.40;;
49175;SDS011;35012;47.200;9.748;2023-05-07T10:01:11;2.83;;;2.47;;
49175;SDS011;35012;47.200;9.748;2023-05-07T10:03:38;3.23;;;2.20;;
49175;SDS011;35012;47.200;9.748;2023-05-07T10:06:06;3.37;;;2.10;;
49175;SDS011;35012;47.200;9.748;2023-05-07T10:08:33;2.20;;;2.00;;
49175;SDS011;35012;47.200;9.748;2023-05-07T10:10:59;3.83;;;2.50;;
49175;SDS011;35012;47.200;9.748;2023-05-07T10:13:24;3.47;;;2.53;;
49175;SDS011;35012;47.200;9.748;2023-05-07T10:15:50;3.13;;;1.90;;
49175;SDS011;35012;47.200;9.748;2023-05-07T10:18:16;2.47;;;1.70;;
49175;SDS011;35012;47.200;9.748;2023-05-07T10:20:41;2.93;;;1.80;;
49175;SDS011;35012;47.200;9.748;2023-05-07T10:23:08;1.97;;;1.87;;
49175;SDS011;35012;47.200;9.748;2023-05-07T10:25:38;4.03;;;1.83;;
49175;SDS011;35012;47.200;9.748;2023-05-07T10:28:07;4.47;;;2.10;;
49175;SDS011;35012;47.200;9.748;2023-05-07T10:33:44;3.10;;;1.90;;
49175;SDS011;35012;47.200;9.748;2023-05-07T10:36:10;3.63;;;1.70;;
49175;SDS011;35012;47.200;9.748;2023-05-07T10:38:36;5.70;;;1.83;;
49175;SDS011;35012;47.200;9.748;2023-05-07T10:41:01;2.07;;;1.80;;
49175;SDS011;35012;47.200;9.748;2023-05-07T10:43:43;2.47;;;2.00;;
49175;SDS011;35012;47.200;9.748;2023-05-07T10:46:10;3.43;;;1.50;;
49175;SDS011;35012;47.200;9.748;2023-05-07T10:51:31;1.40;;;1.30;;
49175;SDS011;35012;47.200;9.748;2023-05-07T10:56:35;1.80;;;1.00;;
49175;SDS011;35012;47.200;9.748;2023-05-07T11:01:49;2.27;;;0.90;;
49175;SDS011;35012;47.200;9.748;2023-05-07T11:04:16;1.87;;;0.83;;
49175;SDS011;35012;47.200;9.748;2023-05-07T11:07:34;1.50;;;0.90;;
49175;SDS011;35012;47.200;9.748;2023-05-07T11:15:05;1.27;;;0.83;;
49175;SDS011;35012;47.200;9.748;2023-05-07T11:17:32;1.47;;;1.00;;
49175;SDS011;35012;47.200;9.748;2023-05-07T11:19:59;2.43;;;0.93;;
49175;SDS011;35012;47.200;9.748;2023-05-07T11:25:04;2.20;;;0.73;;
49175;SDS011;35012;47.200;9.748;2023-05-07T11:27:31;1.90;;;0.80;;
49175;SDS011;35012;47.200;9.748;2023-05-07T11:29:57;1.07;;;0.60;;
49175;SDS011;35012;47.200;9.748;2023-05-07T11:32:24;1.20;;;0.83;;
49175;SDS011;35012;47.200;9.748;2023-05-07T11:34:59;2.33;;;1.07;;
49175;SDS011;35012;47.200;9.748;2023-05-07T11:37:26;1.73;;;1.00;;
49175;SDS011;35012;47.200;9.748;2023-05-07T11:40:06;1.50;;;1.00;;
49175;SDS011;35012;47.200;9.748;2023-05-07T11:42:36;1.43;;;1.00;;
49175;SDS011;35012;47.200;9.748;2023-05-07T11:45:03;2.37;;;0.80;;
49175;SDS011;35012;47.200;9.748;2023-05-07T11:47:30;1.93;;;0.90;;
49175;SDS011;35012;47.200;9.748;2023-05-07T11:49:56;1.47;;;0.90;;
49175;SDS011;35012;47.200;9.748;2023-05-07T11:52:22;1.23;;;0.93;;
49175;SDS011;35012;47.200;9.748;2023-05-07T11:54:51;1.53;;;1.00;;
49175;SDS011;35012;47.200;9.748;2023-05-07T11:57:17;1.48;;;1.00;;
49175;SDS011;35012;47.200;9.748;2023-05-07T11:59:43;2.63;;;1.05;;
49175;SDS011;35012;47.200;9.748;2023-05-07T12:02:15;1.30;;;0.85;;
49175;SDS011;35012;47.200;9.748;2023-05-07T12:04:41;2.55;;;0.90;;
49175;SDS011;35012;47.200;9.748;2023-05-07T12:07:13;1.63;;;0.80;;
49175;SDS011;35012;47.200;9.748;2023-05-07T12:09:40;2.97;;;0.80;;
49175;SDS011;35012;47.200;9.748;2023-05-07T12:12:06;1.53;;;0.80;;
49175;SDS011;35012;47.200;9.748;2023-05-07T12:14:31;1.20;;;0.77;;
49175;SDS011;35012;47.200;9.748;2023-05-07T12:16:57;1.60;;;0.87;;
49175;SDS011;35012;47.200;9.748;2023-05-07T12:19:24;2.03;;;0.73;;
49175;SDS011;35012;47.200;9.748;2023-05-07T12:21:50;0.90;;;0.67;;
49175;SDS011;35012;47.200;9.748;2023-05-07T12:24:15;1.10;;;0.70;;
49175;SDS011;35012;47.200;9.748;2023-05-07T12:26:41;1.95;;;0.90;;
49175;SDS011;35012;47.200;9.748;2023-05-07T12:29:06;1.52;;;0.88;;
49175;SDS011;35012;47.200;9.748;2023-05-07T12:31:32;1.40;;;0.90;;
49175;SDS011;35012;47.200;9.748;2023-05-07T12:33:58;1.10;;;0.70;;
49175;SDS011;35012;47.200;9.748;2023-05-07T12:36:23;2.20;;;0.90;;
49175;SDS011;35012;47.200;9.748;2023-05-07T12:38:49;0.73;;;0.70;;
49175;SDS011;35012;47.200;9.748;2023-05-07T12:41:15;2.00;;;0.82;;
49175;SDS011;35012;47.200;9.748;2023-05-07T12:43:43;1.38;;;0.82;;
49175;SDS011;35012;47.200;9.748;2023-05-07T12:46:09;1.25;;;0.60;;
49175;SDS011;35012;47.200;9.748;2023-05-07T12:48:37;1.05;;;0.80;;
49175;SDS011;35012;47.200;9.748;2023-05-07T12:51:03;0.98;;;0.70;;
49175;SDS011;35012;47.200;9.748;2023-05-07T12:53:31;1.30;;;0.95;;
49175;SDS011;35012;47.200;9.748;2023-05-07T12:55:57;1.25;;;0.88;;
49175;SDS011;35012;47.200;9.748;2023-05-07T12:58:28;1.50;;;1.02;;
49175;SDS011;35012;47.200;9.748;2023-05-07T13:01:06;0.95;;;0.88;;
49175;SDS011;35012;47.200;9.748;2023-05-07T13:03:35;1.45;;;0.80;;
49175;SDS011;35012;47.200;9.748;2023-05-07T13:06:05;1.90;;;0.70;;
49175;SDS011;35012;47.200;9.748;2023-05-07T13:08:32;0.85;;;0.73;;
49175;SDS011;35012;47.200;9.748;2023-05-07T13:11:02;1.50;;;0.73;;
49175;SDS011;35012;47.200;9.748;2023-05-07T13:13:29;1.17;;;0.88;;
49175;SDS011;35012;47.200;9.748;2023-05-07T13:16:05;1.15;;;0.80;;
49175;SDS011;35012;47.200;9.748;2023-05-07T13:18:32;1.60;;;0.85;;
49175;SDS011;35012;47.200;9.748;2023-05-07T13:20:58;0.82;;;0.80;;
49175;SDS011;35012;47.200;9.748;2023-05-07T13:23:25;1.92;;;0.82;;
49175;SDS011;35012;47.200;9.748;2023-05-07T13:25:51;1.48;;;0.98;;
49175;SDS011;35012;47.200;9.748;2023-05-07T13:28:18;1.45;;;0.90;;
49175;SDS011;35012;47.200;9.748;2023-05-07T13:30:45;1.25;;;0.85;;
49175;SDS011;35012;47.200;9.748;2023-05-07T13:33:10;1.48;;;0.73;;
49175;SDS011;35012;47.200;9.748;2023-05-07T13:35:36;1.13;;;0.93;;
49175;SDS011;35012;47.200;9.748;2023-05-07T13:38:02;1.13;;;0.90;;
49175;SDS011;35012;47.200;9.748;2023-05-07T13:40:28;1.35;;;1.10;;
49175;SDS011;35012;47.200;9.748;2023-05-07T13:42:53;2.30;;;0.98;;
49175;SDS011;35012;47.200;9.748;2023-05-07T13:45:23;1.35;;;0.98;;
49175;SDS011;35012;47.200;9.748;2023-05-07T13:47:51;2.30;;;0.90;;
49175;SDS011;35012;47.200;9.748;2023-05-07T13:50:17;1.77;;;1.00;;
49175;SDS011;35012;47.200;9.748;2023-05-07T13:52:43;1.75;;;0.95;;
49175;SDS011;35012;47.200;9.748;2023-05-07T13:55:15;2.53;;;1.00;;
49175;SDS011;35012;47.200;9.748;2023-05-07T13:57:44;1.80;;;0.80;;
49175;SDS011;35012;47.200;9.748;2023-05-07T14:00:10;1.55;;;0.80;;
49175;SDS011;35012;47.200;9.748;2023-05-07T14:02:36;1.63;;;0.90;;
49175;SDS011;35012;47.200;9.748;2023-05-07T14:05:02;1.05;;;0.88;;
49175;SDS011;35012;47.200;9.748;2023-05-07T14:07:27;2.58;;;0.90;;
49175;SDS011;35012;47.200;9.748;2023-05-07T14:09:53;1.20;;;1.00;;
49175;SDS011;35012;47.200;9.748;2023-05-07T14:12:19;1.73;;;0.82;;
49175;SDS011;35012;47.200;9.748;2023-05-07T14:14:45;2.17;;;0.98;;
49175;SDS011;35012;47.200;9.748;2023-05-07T14:17:12;1.63;;;0.98;;
49175;SDS011;35012;47.200;9.748;2023-05-07T14:19:37;1.55;;;0.80;;
49175;SDS011;35012;47.200;9.748;2023-05-07T14:22:03;1.10;;;0.88;;
49175;SDS011;35012;47.200;9.748;2023-05-07T14:24:28;0.95;;;0.85;;
49175;SDS011;35012;47.200;9.748;2023-05-07T14:26:53;2.10;;;1.00;;
49175;SDS011;35012;47.200;9.748;2023-05-07T14:29:19;1.83;;;0.88;;
49175;SDS011;35012;47.200;9.748;2023-05-07T14:31:45;2.30;;;0.82;;
49175;SDS011;35012;47.200;9.748;2023-05-07T14:34:10;1.63;;;0.80;;
49175;SDS011;35012;47.200;9.748;2023-05-07T14:36:36;1.85;;;1.00;;
49175;SDS011;35012;47.200;9.748;2023-05-07T14:39:02;2.20;;;1.02;;
49175;SDS011;35012;47.200;9.748;2023-05-07T14:41:28;2.33;;;1.00;;
49175;SDS011;35012;47.200;9.748;2023-05-07T14:43:54;1.17;;;0.88;;
49175;SDS011;35012;47.200;9.748;2023-05-07T14:46:19;2.40;;;1.13;;
49175;SDS011;35012;47.200;9.748;2023-05-07T14:48:45;1.80;;;0.80;;
49175;SDS011;35012;47.200;9.748;2023-05-07T14:51:11;1.98;;;1.05;;
49175;SDS011;35012;47.200;9.748;2023-05-07T14:53:37;2.05;;;0.80;;
49175;SDS011;35012;47.200;9.748;2023-05-07T14:56:03;2.42;;;1.00;;
49175;SDS011;35012;47.200;9.748;2023-05-07T14:58:28;1.58;;;1.00;;
49175;SDS011;35012;47.200;9.748;2023-05-07T15:00:54;1.80;;;1.10;;
49175;SDS011;35012;47.200;9.748;2023-05-07T15:03:19;2.47;;;1.30;;